sensor_id;sensor_type;location;lat;lon;timestamp;pressure;altitude;pressure_sealevel;temperature;humidity
54870;BME280;40756;-37.950;145.008;2023-02-10T00:01:48;100491.07;;;21.93;49.67
54870;BME280;40756;-37.950;145.008;2023-02-10T00:04:18;100491.62;;;21.62;50.78
54870;BME280;40756;-37.950;145.008;2023-02-10T00:06:47;100490.21;;;21.87;50.67
54870;BME280;40756;-37.950;145.008;2023-02-10T00:09:16;100490.85;;;21.31;51.48
54870;BME280;40756;-37.950;145.008;2023-02-10T00:11:45;100490.24;;;22.11;50.55
54870;BME280;40756;-37.950;145.008;2023-02-10T00:14:16;100480.45;;;22.13;49.55
54870;BME280;40756;-37.950;145.008;2023-02-10T00:16:47;100475.31;;;22.12;49.43
54870;BME280;40756;-37.950;145.008;2023-02-10T00:19:18;100466.68;;;22.61;49.05
54870;BME280;40756;-37.950;145.008;2023-02-10T00:21:48;100467.46;;;22.92;48.17
54870;BME280;40756;-37.950;145.008;2023-02-10T00:24:18;100458.98;;;22.51;48.55
54870;BME280;40756;-37.950;145.008;2023-02-10T00:26:47;100456.08;;;23.33;47.90
54870;BME280;40756;-37.950;145.008;2023-02-10T00:29:18;100448.98;;;22.66;48.11
54870;BME280;40756;-37.950;145.008;2023-02-10T00:31:48;100446.85;;;22.87;48.48
54870;BME280;40756;-37.950;145.008;2023-02-10T00:34:18;100442.55;;;23.20;47.48
54870;BME280;40756;-37.950;145.008;2023-02-10T00:36:50;100442.57;;;23.18;47.61
54870;BME280;40756;-37.950;145.008;2023-02-10T00:39:19;100441.77;;;23.07;47.37
54870;BME280;40756;-37.950;145.008;2023-02-10T00:41:49;100440.99;;;23.19;47.01
54870;BME280;40756;-37.950;145.008;2023-02-10T00:44:18;100437.88;;;23.31;47.06
54870;BME280;40756;-37.950;145.008;2023-02-10T00:46:47;100436.61;;;23.17;46.73
54870;BME280;40756;-37.950;145.008;2023-02-10T00:49:17;100431.91;;;22.96;47.15
54870;BME280;40756;-37.950;145.008;2023-02-10T00:51:46;100425.32;;;23.29;46.74
54870;BME280;40756;-37.950;145.008;2023-02-10T00:54:16;100423.29;;;23.01;47.16
54870;BME280;40756;-37.950;145.008;2023-02-10T00:56:45;100423.99;;;22.55;47.73
54870;BME280;40756;-37.950;145.008;2023-02-10T00:59:15;100417.46;;;22.60;48.25
54870;BME280;40756;-37.950;145.008;2023-02-10T01:01:44;100415.05;;;22.86;47.96
54870;BME280;40756;-37.950;145.008;2023-02-10T01:04:13;100412.15;;;23.00;47.20
54870;BME280;40756;-37.950;145.008;2023-02-10T01:06:43;100412.34;;;22.58;47.65
54870;BME280;40756;-37.950;145.008;2023-02-10T01:09:12;100398.74;;;22.76;47.28
54870;BME280;40756;-37.950;145.008;2023-02-10T01:11:41;100402.30;;;22.58;47.90
54870;BME280;40756;-37.950;145.008;2023-02-10T01:14:11;100399.64;;;21.94;49.52
54870;BME280;40756;-37.950;145.008;2023-02-10T01:16:41;100393.45;;;22.99;47.60
54870;BME280;40756;-37.950;145.008;2023-02-10T01:19:11;100388.27;;;23.33;46.73
54870;BME280;40756;-37.950;145.008;2023-02-10T01:21:41;100380.64;;;23.68;46.61
54870;BME280;40756;-37.950;145.008;2023-02-10T01:24:11;100376.05;;;23.45;46.58
54870;BME280;40756;-37.950;145.008;2023-02-10T01:26:40;100373.79;;;23.85;45.61
54870;BME280;40756;-37.950;145.008;2023-02-10T01:29:10;100374.25;;;23.75;45.30
54870;BME280;40756;-37.950;145.008;2023-02-10T01:31:41;100369.32;;;23.76;45.30
54870;BME280;40756;-37.950;145.008;2023-02-10T01:34:10;100371.66;;;24.27;44.73
54870;BME280;40756;-37.950;145.008;2023-02-10T01:36:40;100372.63;;;24.21;44.59
54870;BME280;40756;-37.950;145.008;2023-02-10T01:39:09;100372.93;;;22.36;47.45
54870;BME280;40756;-37.950;145.008;2023-02-10T01:41:39;100368.18;;;23.83;46.29
54870;BME280;40756;-37.950;145.008;2023-02-10T01:45:15;100369.50;;;23.98;44.99
54870;BME280;40756;-37.950;145.008;2023-02-10T01:47:47;100367.56;;;24.25;45.04
54870;BME280;40756;-37.950;145.008;2023-02-10T01:50:19;100369.43;;;23.23;46.06
54870;BME280;40756;-37.950;145.008;2023-02-10T01:52:50;100357.01;;;24.15;45.57
54870;BME280;40756;-37.950;145.008;2023-02-10T01:55:23;100355.57;;;24.30;44.51
54870;BME280;40756;-37.950;145.008;2023-02-10T01:57:53;100352.56;;;23.97;45.22
54870;BME280;40756;-37.950;145.008;2023-02-10T02:00:24;100348.52;;;23.69;45.94
54870;BME280;40756;-37.950;145.008;2023-02-10T02:02:54;100351.64;;;24.43;44.91
54870;BME280;40756;-37.950;145.008;2023-02-10T02:05:32;100349.38;;;24.23;45.83
54870;BME280;40756;-37.950;145.008;2023-02-10T02:08:05;100351.95;;;23.27;46.65
54870;BME280;40756;-37.950;145.008;2023-02-10T02:10:45;100347.28;;;23.85;45.66
54870;BME280;40756;-37.950;145.008;2023-02-10T02:13:21;100344.14;;;24.49;44.88
54870;BME280;40756;-37.950;145.008;2023-02-10T02:15:57;100338.93;;;24.84;44.40
54870;BME280;40756;-37.950;145.008;2023-02-10T02:18:36;100334.06;;;24.04;45.26
54870;BME280;40756;-37.950;145.008;2023-02-10T02:22:30;100327.77;;;24.40;45.26
54870;BME280;40756;-37.950;145.008;2023-02-10T02:25:16;100325.70;;;24.97;43.34
54870;BME280;40756;-37.950;145.008;2023-02-10T02:28:00;100322.24;;;25.29;43.17
54870;BME280;40756;-37.950;145.008;2023-02-10T02:31:05;100319.85;;;25.20;43.47
54870;BME280;40756;-37.950;145.008;2023-02-10T02:33:44;100312.93;;;25.64;42.93
54870;BME280;40756;-37.950;145.008;2023-02-10T02:36:20;100310.89;;;25.63;41.26
54870;BME280;40756;-37.950;145.008;2023-02-10T02:39:01;100307.64;;;25.59;41.72
54870;BME280;40756;-37.950;145.008;2023-02-10T02:41:32;100304.15;;;25.95;41.43
54870;BME280;40756;-37.950;145.008;2023-02-10T02:44:03;100297.05;;;26.57;40.21
54870;BME280;40756;-37.950;145.008;2023-02-10T02:46:46;100293.09;;;26.99;39.10
54870;BME280;40756;-37.950;145.008;2023-02-10T02:49:29;100286.61;;;26.90;39.70
54870;BME280;40756;-37.950;145.008;2023-02-10T02:52:07;100281.16;;;27.16;38.43
54870;BME280;40756;-37.950;145.008;2023-02-10T02:54:48;100279.86;;;27.63;38.39
54870;BME280;40756;-37.950;145.008;2023-02-10T02:57:25;100278.20;;;26.87;37.90
54870;BME280;40756;-37.950;145.008;2023-02-10T03:00:03;100274.91;;;27.32;37.23
54870;BME280;40756;-37.950;145.008;2023-02-10T03:02:35;100268.68;;;27.22;36.64
54870;BME280;40756;-37.950;145.008;2023-02-10T03:05:07;100263.69;;;27.70;36.54
54870;BME280;40756;-37.950;145.008;2023-02-10T03:07:37;100263.65;;;27.28;35.53
54870;BME280;40756;-37.950;145.008;2023-02-10T03:10:06;100254.99;;;27.80;35.15
54870;BME280;40756;-37.950;145.008;2023-02-10T03:12:36;100248.12;;;28.00;34.18
54870;BME280;40756;-37.950;145.008;2023-02-10T03:15:06;100243.52;;;27.84;34.46
54870;BME280;40756;-37.950;145.008;2023-02-10T03:17:35;100245.34;;;28.73;33.62
54870;BME280;40756;-37.950;145.008;2023-02-10T03:20:05;100243.80;;;28.49;33.05
54870;BME280;40756;-37.950;145.008;2023-02-10T03:22:35;100236.77;;;28.45;33.26
54870;BME280;40756;-37.950;145.008;2023-02-10T03:25:04;100234.81;;;28.74;32.32
54870;BME280;40756;-37.950;145.008;2023-02-10T03:27:34;100232.67;;;28.61;31.82
54870;BME280;40756;-37.950;145.008;2023-02-10T03:30:04;100232.00;;;28.26;31.68
54870;BME280;40756;-37.950;145.008;2023-02-10T03:32:33;100228.66;;;28.25;31.89
54870;BME280;40756;-37.950;145.008;2023-02-10T03:35:03;100235.19;;;28.57;32.75
54870;BME280;40756;-37.950;145.008;2023-02-10T03:37:33;100228.83;;;28.58;32.64
54870;BME280;40756;-37.950;145.008;2023-02-10T03:40:02;100225.19;;;28.64;33.13
54870;BME280;40756;-37.950;145.008;2023-02-10T03:42:31;100228.58;;;28.87;33.87
54870;BME280;40756;-37.950;145.008;2023-02-10T03:45:00;100222.11;;;29.04;33.38
54870;BME280;40756;-37.950;145.008;2023-02-10T03:47:30;100218.27;;;28.51;33.66
54870;BME280;40756;-37.950;145.008;2023-02-10T03:49:59;100215.53;;;28.84;34.29
54870;BME280;40756;-37.950;145.008;2023-02-10T03:52:28;100215.50;;;28.96;33.03
54870;BME280;40756;-37.950;145.008;2023-02-10T03:54:58;100208.94;;;29.75;33.33
54870;BME280;40756;-37.950;145.008;2023-02-10T03:57:27;100214.79;;;28.56;33.83
54870;BME280;40756;-37.950;145.008;2023-02-10T03:59:57;100207.00;;;28.84;34.24
54870;BME280;40756;-37.950;145.008;2023-02-10T04:02:26;100195.18;;;28.94;34.23
54870;BME280;40756;-37.950;145.008;2023-02-10T04:04:56;100185.62;;;28.84;34.23
54870;BME280;40756;-37.950;145.008;2023-02-10T04:07:26;100175.16;;;29.03;34.05
54870;BME280;40756;-37.950;145.008;2023-02-10T04:09:55;100168.93;;;29.17;34.27
54870;BME280;40756;-37.950;145.008;2023-02-10T04:12:25;100171.93;;;28.64;35.16
54870;BME280;40756;-37.950;145.008;2023-02-10T04:14:54;100162.37;;;29.13;34.99
54870;BME280;40756;-37.950;145.008;2023-02-10T04:17:24;100165.81;;;28.81;34.70
54870;BME280;40756;-37.950;145.008;2023-02-10T04:19:53;100161.16;;;29.41;34.47
54870;BME280;40756;-37.950;145.008;2023-02-10T04:22:23;100160.63;;;30.22;33.54
54870;BME280;40756;-37.950;145.008;2023-02-10T04:24:52;100159.55;;;29.83;34.49
54870;BME280;40756;-37.950;145.008;2023-02-10T04:27:21;100153.25;;;29.52;33.26
54870;BME280;40756;-37.950;145.008;2023-02-10T04:29:50;100150.38;;;29.79;33.06
54870;BME280;40756;-37.950;145.008;2023-02-10T04:32:19;100149.47;;;29.48;33.34
54870;BME280;40756;-37.950;145.008;2023-02-10T04:34:49;100150.26;;;29.91;33.38
54870;BME280;40756;-37.950;145.008;2023-02-10T04:37:20;100148.36;;;29.73;33.67
54870;BME280;40756;-37.950;145.008;2023-02-10T04:39:49;100149.12;;;29.34;33.83
54870;BME280;40756;-37.950;145.008;2023-02-10T04:42:19;100144.80;;;29.08;34.07
54870;BME280;40756;-37.950;145.008;2023-02-10T04:44:48;100143.96;;;29.05;34.97
54870;BME280;40756;-37.950;145.008;2023-02-10T04:47:17;100145.51;;;29.47;33.87
54870;BME280;40756;-37.950;145.008;2023-02-10T04:49:47;100142.69;;;29.09;33.68
54870;BME280;40756;-37.950;145.008;2023-02-10T04:52:19;100145.33;;;28.41;36.01
54870;BME280;40756;-37.950;145.008;2023-02-10T04:54:49;100146.19;;;28.42;35.94
54870;BME280;40756;-37.950;145.008;2023-02-10T04:57:18;100142.85;;;28.74;35.98
54870;BME280;40756;-37.950;145.008;2023-02-10T04:59:54;100145.03;;;28.76;35.85
54870;BME280;40756;-37.950;145.008;2023-02-10T05:02:23;100142.82;;;28.56;36.30
54870;BME280;40756;-37.950;145.008;2023-02-10T05:04:53;100135.58;;;28.11;36.65
54870;BME280;40756;-37.950;145.008;2023-02-10T05:07:22;100132.57;;;28.75;35.88
54870;BME280;40756;-37.950;145.008;2023-02-10T05:09:51;100132.18;;;28.93;35.64
54870;BME280;40756;-37.950;145.008;2023-02-10T05:12:20;100124.63;;;29.29;35.31
54870;BME280;40756;-37.950;145.008;2023-02-10T05:14:50;100121.34;;;28.92;34.70
54870;BME280;40756;-37.950;145.008;2023-02-10T05:17:19;100118.76;;;29.11;34.29
54870;BME280;40756;-37.950;145.008;2023-02-10T05:19:48;100120.47;;;28.80;33.94
54870;BME280;40756;-37.950;145.008;2023-02-10T05:22:17;100117.55;;;29.24;33.54
54870;BME280;40756;-37.950;145.008;2023-02-10T05:24:47;100114.76;;;28.60;34.22
54870;BME280;40756;-37.950;145.008;2023-02-10T05:27:16;100109.48;;;28.25;35.24
54870;BME280;40756;-37.950;145.008;2023-02-10T05:29:45;100115.35;;;28.09;35.80
54870;BME280;40756;-37.950;145.008;2023-02-10T05:32:15;100111.30;;;27.08;37.03
54870;BME280;40756;-37.950;145.008;2023-02-10T05:34:44;100110.89;;;28.04;36.32
54870;BME280;40756;-37.950;145.008;2023-02-10T05:37:14;100110.25;;;28.18;36.80
54870;BME280;40756;-37.950;145.008;2023-02-10T05:39:44;100107.08;;;28.37;36.32
54870;BME280;40756;-37.950;145.008;2023-02-10T05:42:13;100106.54;;;28.58;36.19
54870;BME280;40756;-37.950;145.008;2023-02-10T05:44:42;100110.70;;;28.49;36.33
54870;BME280;40756;-37.950;145.008;2023-02-10T05:47:12;100112.80;;;28.24;36.75
54870;BME280;40756;-37.950;145.008;2023-02-10T05:49:41;100101.01;;;27.67;36.23
54870;BME280;40756;-37.950;145.008;2023-02-10T05:52:10;100102.82;;;26.93;37.31
54870;BME280;40756;-37.950;145.008;2023-02-10T05:54:41;100099.37;;;26.29;37.58
54870;BME280;40756;-37.950;145.008;2023-02-10T05:57:11;100095.28;;;26.98;38.38
54870;BME280;40756;-37.950;145.008;2023-02-10T05:59:40;100084.44;;;26.64;38.74
54870;BME280;40756;-37.950;145.008;2023-02-10T06:02:14;100075.93;;;26.70;37.69
54870;BME280;40756;-37.950;145.008;2023-02-10T06:04:44;100077.39;;;27.15;37.97
54870;BME280;40756;-37.950;145.008;2023-02-10T06:07:13;100072.79;;;26.97;38.92
54870;BME280;40756;-37.950;145.008;2023-02-10T06:09:43;100067.20;;;27.59;38.55
54870;BME280;40756;-37.950;145.008;2023-02-10T06:12:13;100072.64;;;27.42;38.53
54870;BME280;40756;-37.950;145.008;2023-02-10T06:14:42;100071.49;;;27.93;38.22
54870;BME280;40756;-37.950;145.008;2023-02-10T06:17:11;100077.11;;;26.64;38.95
54870;BME280;40756;-37.950;145.008;2023-02-10T06:19:41;100075.81;;;27.21;38.81
54870;BME280;40756;-37.950;145.008;2023-02-10T06:22:11;100075.63;;;27.75;38.10
54870;BME280;40756;-37.950;145.008;2023-02-10T06:24:41;100078.40;;;27.91;37.64
54870;BME280;40756;-37.950;145.008;2023-02-10T06:27:11;100075.32;;;27.89;37.76
54870;BME280;40756;-37.950;145.008;2023-02-10T06:29:40;100076.81;;;28.33;37.15
54870;BME280;40756;-37.950;145.008;2023-02-10T06:32:10;100071.56;;;27.85;37.29
54870;BME280;40756;-37.950;145.008;2023-02-10T06:34:39;100066.55;;;28.17;37.73
54870;BME280;40756;-37.950;145.008;2023-02-10T06:37:08;100062.10;;;28.21;37.61
54870;BME280;40756;-37.950;145.008;2023-02-10T06:39:38;100057.85;;;28.75;37.34
54870;BME280;40756;-37.950;145.008;2023-02-10T06:42:08;100055.03;;;27.84;38.35
54870;BME280;40756;-37.950;145.008;2023-02-10T06:44:37;100046.77;;;28.29;38.38
54870;BME280;40756;-37.950;145.008;2023-02-10T06:47:06;100036.93;;;28.63;37.89
54870;BME280;40756;-37.950;145.008;2023-02-10T06:49:36;100038.20;;;28.66;38.01
54870;BME280;40756;-37.950;145.008;2023-02-10T06:52:05;100038.41;;;27.94;38.99
54870;BME280;40756;-37.950;145.008;2023-02-10T06:54:35;100030.37;;;28.25;38.42
54870;BME280;40756;-37.950;145.008;2023-02-10T06:57:04;100026.01;;;28.16;37.87
54870;BME280;40756;-37.950;145.008;2023-02-10T06:59:34;100026.02;;;28.49;37.05
54870;BME280;40756;-37.950;145.008;2023-02-10T07:02:03;100023.52;;;28.15;37.27
54870;BME280;40756;-37.950;145.008;2023-02-10T07:04:33;100020.85;;;29.24;36.60
54870;BME280;40756;-37.950;145.008;2023-02-10T07:07:02;100012.79;;;29.14;35.57
54870;BME280;40756;-37.950;145.008;2023-02-10T07:09:31;100011.75;;;29.47;34.79
54870;BME280;40756;-37.950;145.008;2023-02-10T07:12:01;100004.73;;;29.37;33.55
54870;BME280;40756;-37.950;145.008;2023-02-10T07:14:30;99998.98;;;29.41;33.36
54870;BME280;40756;-37.950;145.008;2023-02-10T07:16:59;99999.80;;;29.70;32.41
54870;BME280;40756;-37.950;145.008;2023-02-10T07:19:28;99998.85;;;29.45;32.05
54870;BME280;40756;-37.950;145.008;2023-02-10T07:21:58;100002.76;;;29.25;32.09
54870;BME280;40756;-37.950;145.008;2023-02-10T07:24:28;100000.77;;;29.71;32.23
54870;BME280;40756;-37.950;145.008;2023-02-10T07:26:58;99997.71;;;29.74;31.41
54870;BME280;40756;-37.950;145.008;2023-02-10T07:29:28;99993.81;;;29.45;31.17
54870;BME280;40756;-37.950;145.008;2023-02-10T07:31:57;99990.61;;;29.74;31.56
54870;BME280;40756;-37.950;145.008;2023-02-10T07:34:26;99985.46;;;29.38;31.42
54870;BME280;40756;-37.950;145.008;2023-02-10T07:36:58;99982.91;;;29.88;31.19
54870;BME280;40756;-37.950;145.008;2023-02-10T07:39:28;99981.35;;;29.25;31.75
54870;BME280;40756;-37.950;145.008;2023-02-10T07:41:58;99982.49;;;28.99;32.26
54870;BME280;40756;-37.950;145.008;2023-02-10T07:44:28;99981.01;;;29.33;32.45
54870;BME280;40756;-37.950;145.008;2023-02-10T07:46:58;99980.86;;;29.45;32.46
54870;BME280;40756;-37.950;145.008;2023-02-10T07:49:27;99983.38;;;29.89;32.52
54870;BME280;40756;-37.950;145.008;2023-02-10T07:51:56;99977.21;;;29.55;32.36
54870;BME280;40756;-37.950;145.008;2023-02-10T07:54:26;99975.63;;;29.57;31.91
54870;BME280;40756;-37.950;145.008;2023-02-10T07:56:56;99970.72;;;29.49;31.83
54870;BME280;40756;-37.950;145.008;2023-02-10T07:59:25;99971.71;;;28.98;31.95
54870;BME280;40756;-37.950;145.008;2023-02-10T08:01:55;99968.33;;;29.19;32.16
54870;BME280;40756;-37.950;145.008;2023-02-10T08:04:25;99965.22;;;29.14;31.69
54870;BME280;40756;-37.950;145.008;2023-02-10T08:06:56;99970.79;;;28.74;31.74
54870;BME280;40756;-37.950;145.008;2023-02-10T08:09:25;99970.23;;;28.47;31.02
54870;BME280;40756;-37.950;145.008;2023-02-10T08:11:55;99975.93;;;28.18;30.01
54870;BME280;40756;-37.950;145.008;2023-02-10T08:14:24;99975.54;;;28.65;30.35
54870;BME280;40756;-37.950;145.008;2023-02-10T08:16:54;99970.27;;;28.48;30.15
54870;BME280;40756;-37.950;145.008;2023-02-10T08:19:23;99968.16;;;28.39;29.90
54870;BME280;40756;-37.950;145.008;2023-02-10T08:21:53;99970.32;;;27.92;30.47
54870;BME280;40756;-37.950;145.008;2023-02-10T08:24:22;99972.22;;;28.19;30.70
54870;BME280;40756;-37.950;145.008;2023-02-10T08:26:52;99977.21;;;27.94;30.49
54870;BME280;40756;-37.950;145.008;2023-02-10T08:29:21;99986.04;;;27.58;29.58
54870;BME280;40756;-37.950;145.008;2023-02-10T08:31:51;99988.88;;;27.54;29.66
54870;BME280;40756;-37.950;145.008;2023-02-10T08:34:22;99985.43;;;27.37;30.08
54870;BME280;40756;-37.950;145.008;2023-02-10T08:36:51;99981.81;;;27.24;30.53
54870;BME280;40756;-37.950;145.008;2023-02-10T08:39:20;99981.51;;;27.11;30.87
54870;BME280;40756;-37.950;145.008;2023-02-10T08:41:50;99983.95;;;26.84;31.05
54870;BME280;40756;-37.950;145.008;2023-02-10T08:44:20;99991.33;;;26.27;30.66
54870;BME280;40756;-37.950;145.008;2023-02-10T08:46:50;99991.27;;;26.56;30.71
54870;BME280;40756;-37.950;145.008;2023-02-10T08:49:19;99982.36;;;26.13;31.04
54870;BME280;40756;-37.950;145.008;2023-02-10T08:51:49;99975.32;;;25.98;31.40
54870;BME280;40756;-37.950;145.008;2023-02-10T08:54:18;99981.18;;;25.50;31.38
54870;BME280;40756;-37.950;145.008;2023-02-10T08:56:49;99985.55;;;25.44;31.96
54870;BME280;40756;-37.950;145.008;2023-02-10T08:59:22;99986.49;;;25.12;32.94
54870;BME280;40756;-37.950;145.008;2023-02-10T09:01:52;99985.11;;;25.22;33.50
54870;BME280;40756;-37.950;145.008;2023-02-10T09:04:21;99992.72;;;25.04;34.17
54870;BME280;40756;-37.950;145.008;2023-02-10T09:06:51;99996.43;;;24.76;34.87
54870;BME280;40756;-37.950;145.008;2023-02-10T09:09:22;99997.04;;;24.96;34.21
54870;BME280;40756;-37.950;145.008;2023-02-10T09:11:53;100006.16;;;24.90;34.54
54870;BME280;40756;-37.950;145.008;2023-02-10T09:14:23;100012.55;;;24.60;34.65
54870;BME280;40756;-37.950;145.008;2023-02-10T09:16:52;100016.87;;;24.39;35.57
54870;BME280;40756;-37.950;145.008;2023-02-10T09:19:22;100020.48;;;24.26;35.47
54870;BME280;40756;-37.950;145.008;2023-02-10T09:21:52;100016.16;;;24.50;35.48
54870;BME280;40756;-37.950;145.008;2023-02-10T09:24:21;100018.93;;;24.18;36.13
54870;BME280;40756;-37.950;145.008;2023-02-10T09:26:51;100014.02;;;24.58;36.53
54870;BME280;40756;-37.950;145.008;2023-02-10T09:29:21;100007.44;;;24.46;36.32
54870;BME280;40756;-37.950;145.008;2023-02-10T09:31:50;100001.31;;;24.36;36.93
54870;BME280;40756;-37.950;145.008;2023-02-10T09:34:19;100004.03;;;24.00;38.10
54870;BME280;40756;-37.950;145.008;2023-02-10T09:36:49;100001.39;;;24.29;37.97
54870;BME280;40756;-37.950;145.008;2023-02-10T09:39:18;100003.44;;;23.72;38.49
54870;BME280;40756;-37.950;145.008;2023-02-10T09:41:54;100001.17;;;23.52;39.09
54870;BME280;40756;-37.950;145.008;2023-02-10T09:44:28;100002.33;;;23.68;39.55
54870;BME280;40756;-37.950;145.008;2023-02-10T09:47:26;100011.26;;;23.78;39.66
54870;BME280;40756;-37.950;145.008;2023-02-10T09:50:46;100017.50;;;23.49;40.13
54870;BME280;40756;-37.950;145.008;2023-02-10T09:53:19;100019.34;;;23.76;39.36
54870;BME280;40756;-37.950;145.008;2023-02-10T09:55:54;100019.19;;;23.44;39.44
54870;BME280;40756;-37.950;145.008;2023-02-10T09:58:29;100019.24;;;23.22;40.13
54870;BME280;40756;-37.950;145.008;2023-02-10T10:01:03;100017.38;;;23.36;40.01
54870;BME280;40756;-37.950;145.008;2023-02-10T10:03:40;100018.08;;;23.42;40.47
54870;BME280;40756;-37.950;145.008;2023-02-10T10:06:18;100019.64;;;23.52;40.71
54870;BME280;40756;-37.950;145.008;2023-02-10T10:08:57;100029.97;;;23.18;40.80
54870;BME280;40756;-37.950;145.008;2023-02-10T10:11:36;100034.81;;;23.36;40.73
54870;BME280;40756;-37.950;145.008;2023-02-10T10:14:16;100034.39;;;23.41;40.75
54870;BME280;40756;-37.950;145.008;2023-02-10T10:17:06;100028.43;;;23.74;40.62
54870;BME280;40756;-37.950;145.008;2023-02-10T10:19:50;100019.62;;;23.38;41.45
54870;BME280;40756;-37.950;145.008;2023-02-10T10:22:33;100013.71;;;23.38;41.77
54870;BME280;40756;-37.950;145.008;2023-02-10T10:25:21;100018.64;;;23.26;41.72
54870;BME280;40756;-37.950;145.008;2023-02-10T10:27:59;100021.91;;;23.23;42.41
54870;BME280;40756;-37.950;145.008;2023-02-10T10:30:38;100021.56;;;22.72;42.70
54870;BME280;40756;-37.950;145.008;2023-02-10T10:33:20;100025.53;;;23.05;42.86
54870;BME280;40756;-37.950;145.008;2023-02-10T10:35:51;100030.61;;;23.22;43.07
54870;BME280;40756;-37.950;145.008;2023-02-10T10:38:23;100029.52;;;23.21;42.75
54870;BME280;40756;-37.950;145.008;2023-02-10T10:40:56;100029.80;;;22.98;44.26
54870;BME280;40756;-37.950;145.008;2023-02-10T10:43:30;100031.33;;;22.98;44.41
54870;BME280;40756;-37.950;145.008;2023-02-10T10:46:05;100035.88;;;22.97;44.53
54870;BME280;40756;-37.950;145.008;2023-02-10T10:48:39;100038.83;;;22.78;44.84
54870;BME280;40756;-37.950;145.008;2023-02-10T10:51:10;100042.80;;;22.79;45.25
54870;BME280;40756;-37.950;145.008;2023-02-10T10:53:43;100040.79;;;22.48;45.77
54870;BME280;40756;-37.950;145.008;2023-02-10T10:56:20;100030.55;;;22.58;45.68
54870;BME280;40756;-37.950;145.008;2023-02-10T10:58:52;100030.89;;;22.71;45.69
54870;BME280;40756;-37.950;145.008;2023-02-10T11:01:34;100033.73;;;22.75;45.39
54870;BME280;40756;-37.950;145.008;2023-02-10T11:04:10;100033.89;;;22.69;45.62
54870;BME280;40756;-37.950;145.008;2023-02-10T11:06:42;100032.68;;;22.60;45.85
54870;BME280;40756;-37.950;145.008;2023-02-10T11:09:23;100032.42;;;22.64;45.75
54870;BME280;40756;-37.950;145.008;2023-02-10T11:12:02;100037.30;;;22.90;45.76
54870;BME280;40756;-37.950;145.008;2023-02-10T11:14:38;100047.14;;;22.67;45.72
54870;BME280;40756;-37.950;145.008;2023-02-10T11:17:20;100050.50;;;22.75;45.48
54870;BME280;40756;-37.950;145.008;2023-02-10T11:19:59;100050.17;;;22.68;45.64
54870;BME280;40756;-37.950;145.008;2023-02-10T11:22:29;100051.61;;;22.75;45.56
54870;BME280;40756;-37.950;145.008;2023-02-10T11:25:00;100050.82;;;22.58;45.78
54870;BME280;40756;-37.950;145.008;2023-02-10T11:27:30;100056.16;;;22.64;45.66
54870;BME280;40756;-37.950;145.008;2023-02-10T11:30:00;100058.50;;;22.61;45.92
54870;BME280;40756;-37.950;145.008;2023-02-10T11:32:32;100057.02;;;22.53;45.87
54870;BME280;40756;-37.950;145.008;2023-02-10T11:35:05;100046.48;;;22.48;45.96
54870;BME280;40756;-37.950;145.008;2023-02-10T11:37:38;100036.73;;;22.23;46.51
54870;BME280;40756;-37.950;145.008;2023-02-10T11:40:20;100035.89;;;22.19;46.71
54870;BME280;40756;-37.950;145.008;2023-02-10T11:42:52;100045.62;;;22.12;46.82
54870;BME280;40756;-37.950;145.008;2023-02-10T11:45:24;100055.23;;;22.39;46.83
54870;BME280;40756;-37.950;145.008;2023-02-10T11:48:04;100048.68;;;22.15;46.59
54870;BME280;40756;-37.950;145.008;2023-02-10T11:50:36;100041.56;;;22.11;46.42
54870;BME280;40756;-37.950;145.008;2023-02-10T11:53:08;100035.66;;;22.08;46.34
54870;BME280;40756;-37.950;145.008;2023-02-10T11:55:50;100042.54;;;21.56;46.89
54870;BME280;40756;-37.950;145.008;2023-02-10T11:58:36;100038.28;;;21.99;45.96
54870;BME280;40756;-37.950;145.008;2023-02-10T12:01:13;100031.59;;;22.08;45.61
54870;BME280;40756;-37.950;145.008;2023-02-10T12:03:58;100028.65;;;21.90;45.40
54870;BME280;40756;-37.950;145.008;2023-02-10T12:06:35;100025.66;;;22.17;45.28
54870;BME280;40756;-37.950;145.008;2023-02-10T12:09:13;100017.46;;;22.25;45.05
54870;BME280;40756;-37.950;145.008;2023-02-10T12:11:49;100011.59;;;21.93;44.93
54870;BME280;40756;-37.950;145.008;2023-02-10T12:14:35;100003.36;;;21.95;44.56
54870;BME280;40756;-37.950;145.008;2023-02-10T12:17:23;100003.32;;;22.20;44.29
54870;BME280;40756;-37.950;145.008;2023-02-10T12:20:07;100000.91;;;21.74;44.62
54870;BME280;40756;-37.950;145.008;2023-02-10T12:22:52;99992.82;;;21.51;44.57
54870;BME280;40756;-37.950;145.008;2023-02-10T12:25:28;99994.93;;;22.04;44.02
54870;BME280;40756;-37.950;145.008;2023-02-10T12:28:04;99996.02;;;21.67;44.05
54870;BME280;40756;-37.950;145.008;2023-02-10T12:30:45;99995.58;;;21.87;43.67
54870;BME280;40756;-37.950;145.008;2023-02-10T12:33:38;99993.20;;;22.11;43.38
54870;BME280;40756;-37.950;145.008;2023-02-10T12:36:17;99993.35;;;22.17;43.11
54870;BME280;40756;-37.950;145.008;2023-02-10T12:38:58;99985.64;;;21.90;42.99
54870;BME280;40756;-37.950;145.008;2023-02-10T12:41:40;99980.57;;;21.70;42.59
54870;BME280;40756;-37.950;145.008;2023-02-10T12:44:27;99982.77;;;22.00;42.47
54870;BME280;40756;-37.950;145.008;2023-02-10T12:47:14;99980.40;;;21.56;42.63
54870;BME280;40756;-37.950;145.008;2023-02-10T12:49:58;99976.21;;;21.65;42.40
54870;BME280;40756;-37.950;145.008;2023-02-10T12:52:36;99973.94;;;22.05;42.49